VOBGVOCI

Guest
Details From VOBG - Bangalore
To VOCI - COCHIN INTL
Flight Number -
Tags decoded
Created
Modified
Stats Distance 197 nm / 364 km
Max Altitude 0 ft / 0 m
Waypoints 4
Social Downloads 2
Likes 0
Share VATSIM

Download

Looking for another format? Having issues loading an existing format? Contact us
Advertisement - Login to hide

Notes

Requested: VOBG CCB CIB VOCI

Route

VOBG CCB CIB VOCI

ID Type Via Altitude Latitude Longitude Leg Dist Tot Dist Heading (true) Name
O VOBG APT - 0 ft / 0 m 12.95016˚ 77.67065˚ - 0 nm - Bangalore
CCB VOR - 0 ft / 0 m 11.03378˚ 77.04806˚ 120 nm 120 nm 198° / 198° COIMBATORE VOR-DME
CIB VOR - 0 ft / 0 m 10.11528˚ 76.68167˚ 59 nm 180 nm 201° / 201° COCHIN INTL VOR-DME
O VOCI APT - 0 ft / 0 m 10.15200˚ 76.40191˚ 16 nm 196 nm 278° / 278° COCHIN INTL

Altitude Profile

Advertisement - Login to hide

Weather


0- 5 10 15 20 25 30 35+ Temperature / ° C

Clouds and Precipitation
Forecast for 2017-12-13 18:00 UTC. Updated 11 minutes ago

Ground ~20,000 ft ~40,000 ft Winds

VOBG

Details ICAO VOBG
Name Bangalore
Region India
Timezone Asia/Kolkata (UTC+5.5)
Stats Elevation 2,912 ft / 888 m (AMSL)
Location 12.950157° 77.670647°
Runways 1
Magnetic Variation 1.217° W

METAR

VOBG 131700Z 11006KT 6000 FEW012 21/18 Q1018

Decode

TAF

Not found

Departure Runways

ID Width Length Bearing (true) Bearing (mag) Surface Threshold Offset Overrun Length
09 200 ft / 61 m 10,786 ft / 3,288 m 84.80° 86.02° Asphalt 0 ft / 0 m 950 ft / 290 m
27 200 ft / 61 m 10,786 ft / 3,288 m 264.81° 266.03° Asphalt 0 ft / 0 m 980 ft / 299 m

VOCI

Details ICAO VOCI (COK)
Name COCHIN INTL
Region India
Timezone Asia/Kolkata (UTC+5.5)
Stats Elevation 30 ft / 9 m (AMSL)
Location 10.151996° 76.401905°
Runways 1
Magnetic Variation 1.654° W

METAR

VOCI 131730Z 00000KT 3000 BR FEW010 SCT012 BKN080 24/22 Q1013 NOSIG

Decode

TAF

TAF VOCI 131100Z 1312/1418 23010KT 3000 DZ/HZ SCT012 OVC080 TEMPO 1312/1315 3000 TSRA/RA SCT008 SCT012 FEW025CB OVC080 BECMG 1316/1317 00000KT 3000 BR TEMPO 1322/1402 1500 BR SCT008 BKN080 BECMG 1405/1406 22005KT 5000 HZ TEMPO 1410/1414 3000 TSRA/RA SCT008 SCT012 FEW025CB OVC080 BECMG 1416/1417 00000KT 3000 DZ/BR

Decode

Destination Runways

ID Width Length Bearing (true) Bearing (mag) Surface Threshold Offset Overrun Length
09 148 ft / 45 m 11,139 ft / 3,395 m 87.86° 89.51° Asphalt 0 ft / 0 m 195 ft / 59 m
27 148 ft / 45 m 11,139 ft / 3,395 m 267.87° 269.52° Asphalt 0 ft / 0 m 195 ft / 59 m

Approach Navaids

Runway Type Ident Frequency Range Bearing (true) Bearing (mag) Slope Elevation
27 Localiser ICIL 110.30 MHz 18 nm / 33 km 266.21° 267.86° - 30 ft / 9 m (AMSL)
27 Glidescope ICIL 110.30 MHz 10 nm / 19 km 267.87° 269.52° 3.00° 28 ft / 9 m (AMSL)
27 DME ICIL 110.30 MHz 18 nm / 33 km - - - 40 ft / 12 m (AMSL)

Popular Alternatives